createdAt,value
2019-06-26T00:00:36.556Z,25.63
2019-06-26T00:04:00.729Z,31.77
2019-06-26T00:07:24.907Z,25.80
2019-06-26T00:10:48.793Z,26.17
2019-06-26T00:14:12.984Z,28.50
2019-06-26T00:17:36.969Z,26.23
2019-06-26T00:21:01.826Z,25.90
2019-06-26T00:24:26.037Z,26.70
2019-06-26T00:27:50.141Z,26.77
2019-06-26T00:31:14.338Z,24.67
2019-06-26T00:34:38.445Z,28.67
2019-06-26T00:38:02.707Z,31.27
2019-06-26T00:41:26.571Z,25.73
2019-06-26T00:44:50.407Z,33.97
2019-06-26T00:48:14.354Z,28.93
2019-06-26T00:51:38.399Z,26.10
2019-06-26T00:55:02.294Z,29.30
2019-06-26T00:58:26.306Z,26.47
2019-06-26T01:01:50.196Z,27.87
2019-06-26T01:05:14.784Z,26.47
2019-06-26T01:08:38.733Z,26.77
2019-06-26T01:12:02.904Z,27.47
2019-06-26T01:15:26.812Z,28.77
2019-06-26T01:18:50.936Z,27.90
2019-06-26T01:22:14.807Z,27.23
2019-06-26T01:25:38.685Z,28.93
2019-06-26T01:29:02.883Z,31.70
2019-06-26T01:32:26.806Z,31.07
2019-06-26T01:35:50.949Z,32.33
2019-06-26T01:39:14.936Z,29.23
2019-06-26T01:42:39.009Z,30.10
2019-06-26T01:46:02.899Z,33.23
2019-06-26T01:49:26.884Z,29.17
2019-06-26T01:52:50.658Z,34.43
2019-06-26T01:56:14.646Z,31.40
2019-06-26T01:59:38.726Z,31.43
2019-06-26T02:03:02.538Z,31.83
2019-06-26T02:06:26.899Z,30.20
2019-06-26T02:09:50.779Z,32.73
2019-06-26T02:13:14.541Z,32.07
2019-06-26T02:16:38.504Z,34.03
2019-06-26T02:20:02.529Z,33.97
2019-06-26T02:23:26.407Z,34.83
2019-06-26T02:26:50.283Z,39.70
2019-06-26T02:30:14.590Z,38.43
2019-06-26T02:33:38.425Z,51.97
2019-06-26T02:37:02.351Z,42.17
2019-06-26T02:40:26.502Z,43.83
2019-06-26T02:43:50.371Z,47.73
2019-06-26T02:47:20.194Z,47.77
2019-06-26T02:50:40.029Z,39.83
2019-06-26T02:54:03.794Z,43.73
2019-06-26T02:57:27.688Z,44.80
2019-06-26T03:00:51.635Z,43.03
2019-06-26T03:04:15.515Z,42.27
2019-06-26T03:07:39.504Z,42.13
2019-06-26T03:11:03.296Z,38.33
2019-06-26T03:14:27.083Z,41.07
2019-06-26T03:17:55.469Z,43.17
2019-06-26T03:21:16.344Z,36.07
2019-06-26T03:24:40.349Z,42.50
2019-06-26T03:28:04.169Z,35.23
2019-06-26T03:31:28.139Z,36.17
2019-06-26T03:34:52.104Z,36.90
2019-06-26T03:38:16.375Z,36.73
2019-06-26T03:41:40.121Z,34.57
2019-06-26T03:45:05.740Z,34.40
2019-06-26T03:48:29.700Z,30.60
2019-06-26T03:51:53.671Z,44.73
2019-06-26T03:55:17.741Z,37.43
2019-06-26T03:58:41.596Z,34.30
2019-06-26T04:02:05.470Z,36.97
2019-06-26T04:05:29.299Z,35.67
2019-06-26T04:08:53.588Z,40.00
2019-06-26T04:12:17.535Z,33.13
2019-06-26T04:15:42.936Z,41.70
2019-06-26T04:19:07.089Z,43.03
2019-06-26T04:22:30.952Z,40.87
2019-06-26T04:25:54.786Z,35.70
2019-06-26T04:29:18.801Z,36.30
2019-06-26T04:32:42.768Z,36.37
2019-06-26T04:36:06.466Z,44.27
2019-06-26T04:39:30.306Z,34.40
2019-06-26T04:42:54.218Z,32.33
2019-06-26T04:46:18.097Z,27.83
2019-06-26T04:49:41.847Z,25.17
2019-06-26T04:53:05.875Z,31.82
2019-06-26T04:56:29.728Z,25.67
2019-06-26T04:59:53.849Z,26.33
2019-06-26T05:03:17.694Z,27.00
2019-06-26T05:06:41.608Z,25.23
2019-06-26T05:10:08.137Z,29.03
2019-06-26T05:13:31.996Z,26.33
2019-06-26T05:16:55.796Z,29.50
2019-06-26T05:20:19.801Z,27.87
2019-06-26T05:23:43.554Z,28.60
2019-06-26T05:27:07.306Z,27.00
2019-06-26T05:30:31.141Z,29.15
2019-06-26T05:33:54.977Z,30.65
2019-06-26T05:37:18.922Z,30.50
2019-06-26T05:40:42.645Z,28.85
2019-06-26T05:44:06.620Z,28.27
2019-06-26T05:47:30.536Z,32.10
2019-06-26T05:50:54.268Z,28.47
2019-06-26T05:54:18.416Z,30.33
2019-06-26T05:57:42.423Z,33.03
2019-06-26T06:01:06.374Z,27.23
2019-06-26T06:04:30.371Z,26.70
2019-06-26T06:07:54.464Z,27.37
2019-06-26T06:11:18.324Z,25.93
2019-06-26T06:14:42.188Z,28.53
2019-06-26T06:18:06.055Z,26.17
2019-06-26T06:21:29.867Z,22.17
2019-06-26T06:24:53.862Z,23.43
2019-06-26T06:28:17.637Z,25.80
2019-06-26T06:31:41.488Z,21.52
2019-06-26T06:35:07.190Z,20.12
2019-06-26T06:38:31.019Z,22.52
2019-06-26T06:41:55.097Z,21.65
2019-06-26T06:45:20.452Z,21.00
2019-06-26T06:48:44.243Z,20.48
2019-06-26T06:52:08.086Z,20.08
2019-06-26T06:55:32.158Z,21.05
2019-06-26T06:58:56.731Z,20.27
2019-06-26T07:02:20.640Z,20.62
2019-06-26T07:05:44.548Z,19.92
2019-06-26T07:09:08.470Z,22.30
2019-06-26T07:12:32.258Z,21.23
2019-06-26T07:15:56.230Z,20.52
2019-06-26T07:19:20.160Z,21.95
2019-06-26T07:22:43.926Z,19.10
2019-06-26T07:26:07.761Z,19.80
2019-06-26T07:29:31.702Z,19.62
2019-06-26T07:32:55.610Z,19.63
2019-06-26T07:36:19.448Z,18.83
2019-06-26T07:39:43.453Z,17.53
2019-06-26T07:43:07.322Z,28.23
2019-06-26T07:46:31.342Z,22.67
2019-06-26T07:49:55.268Z,17.20
2019-06-26T07:53:19.325Z,16.23
2019-06-26T07:56:44.744Z,20.23
2019-06-26T08:00:08.881Z,15.77
2019-06-26T08:03:33.224Z,16.20
2019-06-26T08:06:57.566Z,17.30
2019-06-26T08:10:21.515Z,16.97
2019-06-26T08:13:45.287Z,14.63
2019-06-26T08:17:09.112Z,15.87
2019-06-26T08:20:41.185Z,15.90
2019-06-26T08:24:01.741Z,15.97
2019-06-26T08:27:25.809Z,16.20
2019-06-26T08:30:50.550Z,16.33
2019-06-26T08:34:14.446Z,16.80
2019-06-26T08:37:38.498Z,15.80
2019-06-26T08:41:02.421Z,16.93
2019-06-26T08:44:26.491Z,15.77
2019-06-26T08:47:50.356Z,14.83
2019-06-26T08:51:14.232Z,16.00
2019-06-26T08:54:38.116Z,15.60
2019-06-26T08:58:02.092Z,14.90
2019-06-26T09:01:25.983Z,15.30
2019-06-26T09:04:49.741Z,15.03
2019-06-26T09:08:13.718Z,15.97
2019-06-26T09:11:37.607Z,14.70
2019-06-26T09:15:01.507Z,14.90
2019-06-26T09:18:35.445Z,15.03
2019-06-26T09:21:50.823Z,16.10
2019-06-26T09:25:21.983Z,16.63
2019-06-26T09:28:40.619Z,16.30
2019-06-26T09:32:04.487Z,15.63
2019-06-26T09:35:28.248Z,16.00
2019-06-26T09:38:51.962Z,17.00
2019-06-26T09:42:19.743Z,15.73
2019-06-26T09:45:42.813Z,17.13
2019-06-26T09:49:06.675Z,17.77
2019-06-26T09:52:30.549Z,16.07
2019-06-26T09:55:54.304Z,16.77
2019-06-26T09:59:18.417Z,14.70
2019-06-26T10:02:42.347Z,14.03
2019-06-26T10:06:06.277Z,14.03
2019-06-26T10:09:30.054Z,15.23
2019-06-26T10:12:54.149Z,14.00
2019-06-26T10:16:18.050Z,16.20
2019-06-26T10:19:41.831Z,15.50
2019-06-26T10:23:05.567Z,14.50
2019-06-26T10:26:32.365Z,16.03
2019-06-26T10:29:54.917Z,14.07
2019-06-26T10:33:18.757Z,13.60
2019-06-26T10:36:42.509Z,12.57
2019-06-26T10:40:06.797Z,13.70
2019-06-26T10:43:31.042Z,12.40
2019-06-26T10:46:54.897Z,12.87
2019-06-26T10:50:18.918Z,12.27
2019-06-26T10:53:43.414Z,12.73
2019-06-26T10:57:07.404Z,13.10
2019-06-26T11:00:31.793Z,11.80
2019-06-26T11:03:55.774Z,11.33
2019-06-26T11:07:19.566Z,11.13
2019-06-26T11:10:43.252Z,12.30
2019-06-26T11:14:07.111Z,9.30
2019-06-26T11:17:30.967Z,9.37
2019-06-26T11:20:54.803Z,9.67
2019-06-26T11:24:18.950Z,9.60
2019-06-26T11:27:43.242Z,10.47
2019-06-26T11:31:07.133Z,8.57
2019-06-26T11:34:31.195Z,8.83
2019-06-26T11:37:55.877Z,11.33
2019-06-26T11:41:19.801Z,9.73
2019-06-26T11:44:43.641Z,13.53
2019-06-26T11:48:07.561Z,10.57
2019-06-26T11:51:31.431Z,10.27
2019-06-26T11:55:02.634Z,10.00
2019-06-26T11:58:20.784Z,9.07
2019-06-26T12:01:44.721Z,9.50
2019-06-26T12:05:09.802Z,7.67
2019-06-26T12:08:33.673Z,8.80
2019-06-26T12:11:57.395Z,11.30
2019-06-26T12:15:23.616Z,10.53
2019-06-26T12:18:47.609Z,10.70
2019-06-26T12:22:12.414Z,9.03
2019-06-26T12:25:36.320Z,7.33
2019-06-26T12:29:00.239Z,7.30
2019-06-26T12:32:24.040Z,7.53
2019-06-26T12:35:48.112Z,8.43
2019-06-26T12:39:11.937Z,8.57
2019-06-26T12:42:35.912Z,8.47
2019-06-26T12:45:59.744Z,8.20
2019-06-26T12:49:23.665Z,10.00
2019-06-26T12:52:47.544Z,7.67
2019-06-26T12:56:11.328Z,11.47
2019-06-26T12:59:35.159Z,11.60
2019-06-26T13:02:59.009Z,9.50
2019-06-26T13:06:22.924Z,8.70
2019-06-26T13:09:46.778Z,11.00
2019-06-26T13:13:10.796Z,9.47
2019-06-26T13:16:34.965Z,9.07
2019-06-26T13:19:58.756Z,11.43
2019-06-26T13:23:22.986Z,9.73
2019-06-26T13:26:46.867Z,11.57
2019-06-26T13:30:12.288Z,8.47
2019-06-26T13:33:36.367Z,11.03
2019-06-26T13:37:00.111Z,9.63
2019-06-26T13:40:23.925Z,10.03
2019-06-26T13:43:47.872Z,9.83
2019-06-26T13:47:11.776Z,12.93
2019-06-26T13:50:35.559Z,11.47
2019-06-26T13:53:59.440Z,9.67
2019-06-26T13:57:23.185Z,12.67
2019-06-26T14:00:47.233Z,9.40
2019-06-26T14:04:11.089Z,8.53
2019-06-26T14:07:34.937Z,9.40
2019-06-26T14:10:58.802Z,8.77
2019-06-26T14:14:37.673Z,9.40
2019-06-26T14:17:48.363Z,9.07
2019-06-26T14:21:24.968Z,8.30
2019-06-26T14:24:37.838Z,9.97
2019-06-26T14:28:01.748Z,8.10
2019-06-26T14:31:25.525Z,9.50
2019-06-26T14:34:49.359Z,8.87
2019-06-26T14:38:13.183Z,8.30
2019-06-26T14:41:39.249Z,9.30
2019-06-26T14:45:02.681Z,13.17
2019-06-26T14:48:26.535Z,9.40
2019-06-26T14:51:50.435Z,10.07
2019-06-26T14:55:15.545Z,13.47
2019-06-26T14:58:39.849Z,10.43
2019-06-26T15:02:03.696Z,8.93
2019-06-26T15:05:27.615Z,12.83
2019-06-26T15:08:51.494Z,8.33
2019-06-26T15:12:15.249Z,10.27
2019-06-26T15:15:39.241Z,8.53
2019-06-26T15:19:02.935Z,8.63
2019-06-26T15:22:26.880Z,12.73
2019-06-26T15:25:50.873Z,9.20
2019-06-26T15:29:14.844Z,9.73
2019-06-26T15:32:38.764Z,9.10
2019-06-26T15:36:02.851Z,10.80
2019-06-26T15:39:26.708Z,14.30
2019-06-26T15:42:50.594Z,7.53
2019-06-26T15:46:14.566Z,8.20
2019-06-26T15:49:38.493Z,14.57
2019-06-26T15:53:03.091Z,12.03
2019-06-26T15:56:27.030Z,7.97
2019-06-26T15:59:50.862Z,8.27
2019-06-26T16:03:23.325Z,11.67
2019-06-26T16:06:47.373Z,11.47
2019-06-26T16:10:11.435Z,10.67
2019-06-26T16:13:35.450Z,9.27
2019-06-26T16:17:00.855Z,12.30
2019-06-26T16:20:24.769Z,9.77
2019-06-26T16:23:49.385Z,10.67
2019-06-26T16:27:13.184Z,11.27
2019-06-26T16:30:36.932Z,9.93
2019-06-26T16:34:00.873Z,10.03
2019-06-26T16:37:24.686Z,8.47
2019-06-26T16:40:48.954Z,9.07
2019-06-26T16:44:13.038Z,12.50
2019-06-26T16:47:37.520Z,13.17
2019-06-26T16:51:01.311Z,8.57
2019-06-26T16:54:25.233Z,9.27
2019-06-26T16:57:49.105Z,12.70
2019-06-26T17:01:12.851Z,12.53
2019-06-26T17:04:36.767Z,11.73
2019-06-26T17:08:00.559Z,9.93
2019-06-26T17:11:24.532Z,8.47
2019-06-26T17:14:48.407Z,12.00
2019-06-26T17:18:12.155Z,10.03
2019-06-26T17:21:36.289Z,10.30
2019-06-26T17:25:00.168Z,12.57
2019-06-26T17:28:24.001Z,10.47
2019-06-26T17:31:47.860Z,11.03
2019-06-26T17:35:13.014Z,9.37
2019-06-26T17:38:37.207Z,9.40
2019-06-26T17:42:01.943Z,13.43
2019-06-26T17:45:26.953Z,9.40
2019-06-26T17:48:51.236Z,10.17
2019-06-26T17:52:15.048Z,8.93
2019-06-26T17:55:59.781Z,12.13
2019-06-26T17:59:23.746Z,10.73
2019-06-26T18:02:47.526Z,13.83
2019-06-26T18:06:13.164Z,9.87
2019-06-26T18:09:38.093Z,13.70
2019-06-26T18:13:02.685Z,11.70
2019-06-26T18:16:26.623Z,10.53
2019-06-26T18:19:53.817Z,9.87
2019-06-26T18:23:16.931Z,10.20
2019-06-26T18:26:41.542Z,13.05
2019-06-26T18:30:08.645Z,12.82
2019-06-26T18:33:32.638Z,10.50
2019-06-26T18:36:56.449Z,12.13
2019-06-26T18:40:25.593Z,11.23
2019-06-26T18:43:51.121Z,14.63
2019-06-26T18:47:15.090Z,12.23
2019-06-26T18:50:39.474Z,9.37
2019-06-26T18:54:05.369Z,12.77
2019-06-26T18:57:29.210Z,12.90
2019-06-26T19:00:53.048Z,13.33
2019-06-26T19:04:16.845Z,14.37
2019-06-26T19:07:40.803Z,10.63
2019-06-26T19:11:04.571Z,15.93
2019-06-26T19:14:28.379Z,13.03
2019-06-26T19:17:52.365Z,12.37
2019-06-26T19:21:24.106Z,16.27
2019-06-26T19:24:49.576Z,12.50
2019-06-26T19:28:13.953Z,13.70
2019-06-26T19:31:38.039Z,11.70
2019-06-26T19:35:08.034Z,14.40
2019-06-26T19:38:27.332Z,16.10
2019-06-26T19:41:51.274Z,12.23
2019-06-26T19:45:15.731Z,13.53
2019-06-26T19:48:39.680Z,14.93
2019-06-26T19:52:03.894Z,14.63
2019-06-26T19:55:27.980Z,17.60
2019-06-26T19:58:52.173Z,14.53
2019-06-26T20:02:23.366Z,15.55
2019-06-26T20:05:45.865Z,15.63
2019-06-26T20:09:18.233Z,13.48
2019-06-26T20:12:49.678Z,15.98
2019-06-26T20:16:13.537Z,15.10
2019-06-26T20:19:41.716Z,15.40
2019-06-26T20:23:09.772Z,15.05
2019-06-26T20:26:33.198Z,13.30
2019-06-26T20:29:57.062Z,16.07
2019-06-26T20:33:21.011Z,16.17
2019-06-26T20:36:44.819Z,16.65
2019-06-26T20:40:09.096Z,18.70
2019-06-26T20:43:37.879Z,15.18
2019-06-26T20:47:01.730Z,13.05
2019-06-26T20:50:25.531Z,15.13
2019-06-26T20:53:49.562Z,15.30
2019-06-26T20:57:13.531Z,15.13
2019-06-26T21:00:39.091Z,13.87
2019-06-26T21:07:48.456Z,14.15
2019-06-26T21:11:15.607Z,14.63
2019-06-26T21:14:37.734Z,17.12
2019-06-26T21:18:01.486Z,18.17
2019-06-26T21:21:25.319Z,14.83
2019-06-26T21:24:54.389Z,13.40
2019-06-26T21:28:18.280Z,19.47
2019-06-26T21:31:45.919Z,17.50
2019-06-26T21:35:10.111Z,14.53
2019-06-26T21:38:33.874Z,14.97
2019-06-26T21:41:57.822Z,17.10
2019-06-26T21:45:21.677Z,15.90
2019-06-26T21:48:45.500Z,18.93
2019-06-26T21:52:10.368Z,18.47
2019-06-26T21:55:35.093Z,20.47
2019-06-26T21:58:59.026Z,17.23
2019-06-26T22:02:22.777Z,21.23
2019-06-26T22:05:54.516Z,14.83
2019-06-26T22:09:18.594Z,18.40
2019-06-26T22:12:42.881Z,17.43
2019-06-26T22:16:10.432Z,17.87
2019-06-26T22:19:35.761Z,15.03
2019-06-26T22:22:59.849Z,19.97
2019-06-26T22:26:23.952Z,20.53
2019-06-26T22:29:47.923Z,18.93
2019-06-26T22:33:18.273Z,16.87
2019-06-26T22:36:51.328Z,17.53
2019-06-26T22:40:16.643Z,17.07
2019-06-26T22:43:41.997Z,18.97
2019-06-26T22:47:06.695Z,23.37
2019-06-26T22:50:30.516Z,18.27
2019-06-26T22:53:58.755Z,19.10
2019-06-26T22:57:24.058Z,17.13
2019-06-26T23:00:48.059Z,17.73
2019-06-26T23:04:11.837Z,18.40
2019-06-26T23:07:35.842Z,17.37
2019-06-26T23:10:59.686Z,17.37
2019-06-26T23:14:23.670Z,20.40
2019-06-26T23:17:48.677Z,17.13
2019-06-26T23:21:14.208Z,17.43
2019-06-26T23:24:40.042Z,21.63
2019-06-26T23:28:10.809Z,22.00
2019-06-26T23:31:34.885Z,18.03
2019-06-26T23:34:58.855Z,18.23
2019-06-26T23:38:36.260Z,17.90
2019-06-26T23:41:57.518Z,15.53
2019-06-26T23:45:21.541Z,17.67
2019-06-26T23:48:45.888Z,19.60
2019-06-26T23:52:09.726Z,15.63
2019-06-26T23:55:33.896Z,19.93
2019-06-26T23:58:59.313Z,17.63
